sensor_id;sensor_type;location;lat;lon;timestamp;pressure;altitude;pressure_sealevel;temperature;humidity
56876;BME280;42622;49.972;8.452;2022-11-20T00:01:28;100254.75;;;0.41;100.00
56876;BME280;42622;49.972;8.452;2022-11-20T00:03:57;100261.63;;;0.42;100.00
56876;BME280;42622;49.972;8.452;2022-11-20T00:06:25;100262.53;;;0.41;100.00
56876;BME280;42622;49.972;8.452;2022-11-20T00:08:57;100266.84;;;0.42;100.00
56876;BME280;42622;49.972;8.452;2022-11-20T00:11:26;100255.59;;;0.42;100.00
56876;BME280;42622;49.972;8.452;2022-11-20T00:13:57;100261.63;;;0.42;100.00
56876;BME280;42622;49.972;8.452;2022-11-20T00:16:28;100266.13;;;0.37;100.00
56876;BME280;42622;49.972;8.452;2022-11-20T00:18:56;100258.47;;;0.33;100.00
56876;BME280;42622;49.972;8.452;2022-11-20T00:21:25;100261.19;;;0.28;100.00
56876;BME280;42622;49.972;8.452;2022-11-20T00:23:55;100248.41;;;0.20;100.00
56876;BME280;42622;49.972;8.452;2022-11-20T00:26:25;100245.13;;;0.14;100.00
56876;BME280;42622;49.972;8.452;2022-11-20T00:28:59;100248.97;;;0.01;100.00
56876;BME280;42622;49.972;8.452;2022-11-20T00:31:27;100239.72;;;-0.10;100.00
56876;BME280;42622;49.972;8.452;2022-11-20T00:33:54;100247.59;;;-0.13;100.00
56876;BME280;42622;49.972;8.452;2022-11-20T00:36:24;100244.09;;;-0.12;100.00
56876;BME280;42622;49.972;8.452;2022-11-20T00:38:54;100244.06;;;-0.10;100.00
56876;BME280;42622;49.972;8.452;2022-11-20T00:41:23;100245.75;;;-0.09;100.00
56876;BME280;42622;49.972;8.452;2022-11-20T00:43:51;100248.22;;;-0.03;100.00
56876;BME280;42622;49.972;8.452;2022-11-20T00:46:23;100250.75;;;-0.02;100.00
56876;BME280;42622;49.972;8.452;2022-11-20T00:48:50;100237.63;;;0.03;100.00
56876;BME280;42622;49.972;8.452;2022-11-20T00:51:21;100240.97;;;0.07;100.00
56876;BME280;42622;49.972;8.452;2022-11-20T00:53:48;100235.75;;;0.08;100.00
56876;BME280;42622;49.972;8.452;2022-11-20T00:56:18;100233.94;;;0.10;100.00
56876;BME280;42622;49.972;8.452;2022-11-20T00:58:46;100241.72;;;0.12;100.00
56876;BME280;42622;49.972;8.452;2022-11-20T01:01:20;100241.66;;;0.15;100.00
56876;BME280;42622;49.972;8.452;2022-11-20T01:03:54;100248.47;;;0.19;100.00
56876;BME280;42622;49.972;8.452;2022-11-20T01:06:29;100249.16;;;0.24;100.00
56876;BME280;42622;49.972;8.452;2022-11-20T01:09:02;100248.38;;;0.22;100.00
56876;BME280;42622;49.972;8.452;2022-11-20T01:11:33;100244.09;;;0.19;100.00
56876;BME280;42622;49.972;8.452;2022-11-20T01:14:03;100242.22;;;0.24;100.00
56876;BME280;42622;49.972;8.452;2022-11-20T01:16:35;100248.19;;;0.28;100.00
56876;BME280;42622;49.972;8.452;2022-11-20T01:19:07;100242.13;;;0.28;100.00
56876;BME280;42622;49.972;8.452;2022-11-20T01:21:40;100244.72;;;0.29;100.00
56876;BME280;42622;49.972;8.452;2022-11-20T01:24:12;100246.47;;;0.27;100.00
56876;BME280;42622;49.972;8.452;2022-11-20T01:26:41;100236.06;;;0.29;100.00
56876;BME280;42622;49.972;8.452;2022-11-20T01:29:19;100242.09;;;0.29;100.00
56876;BME280;42622;49.972;8.452;2022-11-20T01:31:48;100238.66;;;0.29;100.00
56876;BME280;42622;49.972;8.452;2022-11-20T01:34:18;100247.41;;;0.24;100.00
56876;BME280;42622;49.972;8.452;2022-11-20T01:36:45;100249.13;;;0.26;100.00
56876;BME280;42622;49.972;8.452;2022-11-20T01:39:24;100246.47;;;0.29;100.00
56876;BME280;42622;49.972;8.452;2022-11-20T01:41:53;100248.09;;;0.31;100.00
56876;BME280;42622;49.972;8.452;2022-11-20T01:44:57;100235.84;;;0.36;100.00
56876;BME280;42622;49.972;8.452;2022-11-20T01:47:38;100236.53;;;0.41;100.00
56876;BME280;42622;49.972;8.452;2022-11-20T01:50:26;100239.22;;;0.38;100.00
56876;BME280;42622;49.972;8.452;2022-11-20T01:53:04;100233.00;;;0.44;100.00
56876;BME280;42622;49.972;8.452;2022-11-20T01:55:46;100227.81;;;0.44;100.00
56876;BME280;42622;49.972;8.452;2022-11-20T01:58:19;100222.63;;;0.42;100.00
56876;BME280;42622;49.972;8.452;2022-11-20T02:00:48;100222.53;;;0.45;100.00
56876;BME280;42622;49.972;8.452;2022-11-20T02:03:19;100222.50;;;0.47;100.00
56876;BME280;42622;49.972;8.452;2022-11-20T02:06:03;100221.59;;;0.50;100.00
56876;BME280;42622;49.972;8.452;2022-11-20T02:08:37;100219.84;;;0.48;100.00
56876;BME280;42622;49.972;8.452;2022-11-20T02:11:04;100230.34;;;0.45;100.00
56876;BME280;42622;49.972;8.452;2022-11-20T02:13:30;100218.16;;;0.47;100.00
56876;BME280;42622;49.972;8.452;2022-11-20T02:16:21;100211.19;;;0.50;100.00
56876;BME280;42622;49.972;8.452;2022-11-20T02:18:53;100217.16;;;0.52;100.00
56876;BME280;42622;49.972;8.452;2022-11-20T02:21:47;100215.56;;;0.47;100.00
56876;BME280;42622;49.972;8.452;2022-11-20T02:24:22;100211.25;;;0.46;100.00
56876;BME280;42622;49.972;8.452;2022-11-20T02:26:56;100211.25;;;0.46;100.00
56876;BME280;42622;49.972;8.452;2022-11-20T02:29:35;100221.59;;;0.50;100.00
56876;BME280;42622;49.972;8.452;2022-11-20T02:32:05;100211.19;;;0.50;100.00
56876;BME280;42622;49.972;8.452;2022-11-20T02:34:31;100214.56;;;0.52;100.00
56876;BME280;42622;49.972;8.452;2022-11-20T02:36:59;100210.22;;;0.52;100.00
56876;BME280;42622;49.972;8.452;2022-11-20T02:39:28;100219.75;;;0.52;100.00
56876;BME280;42622;49.972;8.452;2022-11-20T02:41:56;100213.88;;;0.46;100.00
56876;BME280;42622;49.972;8.452;2022-11-20T02:44:22;100215.47;;;0.51;100.00
56876;BME280;42622;49.972;8.452;2022-11-20T02:46:48;100211.06;;;0.53;100.00
56876;BME280;42622;49.972;8.452;2022-11-20T02:49:13;100204.91;;;0.55;100.00
56876;BME280;42622;49.972;8.452;2022-11-20T02:51:39;100206.69;;;0.55;100.00
56876;BME280;42622;49.972;8.452;2022-11-20T02:54:05;100204.06;;;0.55;100.00
56876;BME280;42622;49.972;8.452;2022-11-20T02:56:31;100199.72;;;0.55;100.00
56876;BME280;42622;49.972;8.452;2022-11-20T02:58:57;100204.00;;;0.56;100.00
56876;BME280;42622;49.972;8.452;2022-11-20T03:01:22;100209.97;;;0.60;100.00
56876;BME280;42622;49.972;8.452;2022-11-20T03:03:48;100219.53;;;0.59;100.00
56876;BME280;42622;49.972;8.452;2022-11-20T03:06:16;100213.53;;;0.57;100.00
56876;BME280;42622;49.972;8.452;2022-11-20T03:08:42;100205.84;;;0.54;100.00
56876;BME280;42622;49.972;8.452;2022-11-20T03:11:09;100217.03;;;0.56;100.00
56876;BME280;42622;49.972;8.452;2022-11-20T03:13:35;100221.47;;;0.53;100.00
56876;BME280;42622;49.972;8.452;2022-11-20T03:16:07;100203.25;;;0.53;100.00
56876;BME280;42622;49.972;8.452;2022-11-20T03:18:35;100207.44;;;0.58;100.00
56876;BME280;42622;49.972;8.452;2022-11-20T03:21:01;100212.56;;;0.60;100.00
56876;BME280;42622;49.972;8.452;2022-11-20T03:23:30;100205.50;;;0.65;100.00
56876;BME280;42622;49.972;8.452;2022-11-20T03:26:13;100198.47;;;0.67;100.00
56876;BME280;42622;49.972;8.452;2022-11-20T03:28:40;100202.00;;;0.66;100.00
56876;BME280;42622;49.972;8.452;2022-11-20T03:31:20;100210.69;;;0.65;100.00
56876;BME280;42622;49.972;8.452;2022-11-20T03:33:48;100210.66;;;0.66;100.00
56876;BME280;42622;49.972;8.452;2022-11-20T03:36:17;100206.28;;;0.67;100.00
56876;BME280;42622;49.972;8.452;2022-11-20T03:38:45;100200.22;;;0.68;100.00
56876;BME280;42622;49.972;8.452;2022-11-20T03:41:18;100202.72;;;0.71;100.00
56876;BME280;42622;49.972;8.452;2022-11-20T03:44:04;100195.88;;;0.67;100.00
56876;BME280;42622;49.972;8.452;2022-11-20T03:46:32;100182.88;;;0.67;100.00
56876;BME280;42622;49.972;8.452;2022-11-20T03:48:58;100197.63;;;0.66;100.00
56876;BME280;42622;49.972;8.452;2022-11-20T03:51:27;100205.31;;;0.71;100.00
56876;BME280;42622;49.972;8.452;2022-11-20T03:53:59;100205.41;;;0.68;100.00
56876;BME280;42622;49.972;8.452;2022-11-20T03:56:29;100198.69;;;0.61;100.00
56876;BME280;42622;49.972;8.452;2022-11-20T03:58:57;100197.78;;;0.62;100.00
56876;BME280;42622;49.972;8.452;2022-11-20T04:01:26;100195.94;;;0.65;100.00
56876;BME280;42622;49.972;8.452;2022-11-20T04:03:58;100197.69;;;0.65;100.00
56876;BME280;42622;49.972;8.452;2022-11-20T04:06:30;100194.91;;;0.71;100.00
56876;BME280;42622;49.972;8.452;2022-11-20T04:09:00;100200.97;;;0.71;100.00
56876;BME280;42622;49.972;8.452;2022-11-20T04:11:32;100188.06;;;0.67;100.00
56876;BME280;42622;49.972;8.452;2022-11-20T04:14:04;100182.03;;;0.66;100.00
56876;BME280;42622;49.972;8.452;2022-11-20T04:16:35;100170.03;;;0.62;100.00
56876;BME280;42622;49.972;8.452;2022-11-20T04:19:05;100179.34;;;0.69;100.00
56876;BME280;42622;49.972;8.452;2022-11-20T04:21:32;100189.81;;;0.68;100.00
56876;BME280;42622;49.972;8.452;2022-11-20T04:23:58;100176.13;;;0.61;100.00
56876;BME280;42622;49.972;8.452;2022-11-20T04:26:28;100168.31;;;0.61;100.00
56876;BME280;42622;49.972;8.452;2022-11-20T04:28:56;100162.28;;;0.61;100.00
56876;BME280;42622;49.972;8.452;2022-11-20T04:31:26;100167.41;;;0.64;100.00
56876;BME280;42622;49.972;8.452;2022-11-20T04:33:54;100161.47;;;0.59;100.00
56876;BME280;42622;49.972;8.452;2022-11-20T04:36:26;100169.28;;;0.59;100.00
56876;BME280;42622;49.972;8.452;2022-11-20T04:38:56;100169.19;;;0.62;100.00
56876;BME280;42622;49.972;8.452;2022-11-20T04:41:27;100176.16;;;0.60;100.00
56876;BME280;42622;49.972;8.452;2022-11-20T04:43:56;100182.19;;;0.62;100.00
56876;BME280;42622;49.972;8.452;2022-11-20T04:46:31;100179.63;;;0.60;100.00
56876;BME280;42622;49.972;8.452;2022-11-20T04:48:59;100182.94;;;0.65;100.00
56876;BME280;42622;49.972;8.452;2022-11-20T04:51:26;100185.34;;;0.71;100.00
56876;BME280;42622;49.972;8.452;2022-11-20T04:53:52;100195.53;;;0.78;100.00
56876;BME280;42622;49.972;8.452;2022-11-20T04:56:19;100199.78;;;0.82;100.00
56876;BME280;42622;49.972;8.452;2022-11-20T04:58:44;100191.00;;;0.84;100.00
56876;BME280;42622;49.972;8.452;2022-11-20T05:01:20;100175.50;;;0.81;100.00
56876;BME280;42622;49.972;8.452;2022-11-20T05:03:48;100173.00;;;0.78;100.00
56876;BME280;42622;49.972;8.452;2022-11-20T05:06:17;100178.34;;;0.74;100.00
56876;BME280;42622;49.972;8.452;2022-11-20T05:08:44;100168.78;;;0.74;100.00
56876;BME280;42622;49.972;8.452;2022-11-20T05:11:13;100165.28;;;0.75;100.00
56876;BME280;42622;49.972;8.452;2022-11-20T05:13:42;100170.41;;;0.78;100.00
56876;BME280;42622;49.972;8.452;2022-11-20T05:16:18;100173.78;;;0.80;100.00
56876;BME280;42622;49.972;8.452;2022-11-20T05:18:46;100173.78;;;0.80;100.00
56876;BME280;42622;49.972;8.452;2022-11-20T05:21:14;100170.41;;;0.78;100.00
56876;BME280;42622;49.972;8.452;2022-11-20T05:23:41;100164.47;;;0.73;100.00
56876;BME280;42622;49.972;8.452;2022-11-20T05:26:15;100166.31;;;0.71;100.00
56876;BME280;42622;49.972;8.452;2022-11-20T05:28:47;100161.22;;;0.66;100.00
56876;BME280;42622;49.972;8.452;2022-11-20T05:31:18;100168.16;;;0.67;100.00
56876;BME280;42622;49.972;8.452;2022-11-20T05:33:45;100169.00;;;0.68;100.00
56876;BME280;42622;49.972;8.452;2022-11-20T05:36:14;100165.53;;;0.67;100.00
56876;BME280;42622;49.972;8.452;2022-11-20T05:38:42;100161.19;;;0.68;100.00
56876;BME280;42622;49.972;8.452;2022-11-20T05:41:15;100169.00;;;0.68;100.00
56876;BME280;42622;49.972;8.452;2022-11-20T05:43:45;100159.34;;;0.71;100.00
56876;BME280;42622;49.972;8.452;2022-11-20T05:46:14;100165.28;;;0.75;100.00
56876;BME280;42622;49.972;8.452;2022-11-20T05:48:44;100165.28;;;0.75;100.00
56876;BME280;42622;49.972;8.452;2022-11-20T05:51:14;100163.56;;;0.74;100.00
56876;BME280;42622;49.972;8.452;2022-11-20T05:53:42;100165.28;;;0.75;100.00
56876;BME280;42622;49.972;8.452;2022-11-20T05:56:17;100167.00;;;0.76;100.00
56876;BME280;42622;49.972;8.452;2022-11-20T05:58:46;100155.56;;;0.82;100.00
56876;BME280;42622;49.972;8.452;2022-11-20T06:01:23;100153.63;;;0.87;100.00
56876;BME280;42622;49.972;8.452;2022-11-20T06:03:52;100154.47;;;0.87;100.00
56876;BME280;42622;49.972;8.452;2022-11-20T06:06:20;100154.56;;;0.84;100.00
56876;BME280;42622;49.972;8.452;2022-11-20T06:08:46;100157.09;;;0.87;100.00
56876;BME280;42622;49.972;8.452;2022-11-20T06:11:13;100152.59;;;0.92;100.00
56876;BME280;42622;49.972;8.452;2022-11-20T06:13:41;100150.00;;;0.92;100.00
56876;BME280;42622;49.972;8.452;2022-11-20T06:16:08;100154.38;;;0.90;100.00
56876;BME280;42622;49.972;8.452;2022-11-20T06:18:35;100148.44;;;0.87;100.00
56876;BME280;42622;49.972;8.452;2022-11-20T06:21:14;100156.09;;;0.91;100.00
56876;BME280;42622;49.972;8.452;2022-11-20T06:23:42;100146.56;;;0.92;100.00
56876;BME280;42622;49.972;8.452;2022-11-20T06:26:16;100154.22;;;0.95;100.00
56876;BME280;42622;49.972;8.452;2022-11-20T06:28:50;100153.38;;;0.94;100.00
56876;BME280;42622;49.972;8.452;2022-11-20T06:31:20;100144.72;;;0.94;100.00
56876;BME280;42622;49.972;8.452;2022-11-20T06:33:48;100135.16;;;0.94;100.00
56876;BME280;42622;49.972;8.452;2022-11-20T06:36:18;100141.22;;;0.95;100.00
56876;BME280;42622;49.972;8.452;2022-11-20T06:38:46;100147.16;;;0.99;100.00
56876;BME280;42622;49.972;8.452;2022-11-20T06:41:20;100158.19;;;1.07;100.00
56876;BME280;42622;49.972;8.452;2022-11-20T06:43:48;100153.78;;;1.09;100.00
56876;BME280;42622;49.972;8.452;2022-11-20T06:46:16;100153.00;;;1.07;100.00
56876;BME280;42622;49.972;8.452;2022-11-20T06:48:44;100147.97;;;1.01;100.00
56876;BME280;42622;49.972;8.452;2022-11-20T06:51:11;100154.94;;;1.00;100.00
56876;BME280;42622;49.972;8.452;2022-11-20T06:53:38;100165.09;;;1.08;100.00
56876;BME280;42622;49.972;8.452;2022-11-20T06:56:05;100160.81;;;1.07;100.00
56876;BME280;42622;49.972;8.452;2022-11-20T06:58:34;100159.09;;;1.06;100.00
56876;BME280;42622;49.972;8.452;2022-11-20T07:01:06;100166.00;;;1.07;100.00
56876;BME280;42622;49.972;8.452;2022-11-20T07:03:34;100166.78;;;1.09;100.00
56876;BME280;42622;49.972;8.452;2022-11-20T07:06:01;100174.50;;;1.12;100.00
56876;BME280;42622;49.972;8.452;2022-11-20T07:08:28;100169.25;;;1.13;100.00
56876;BME280;42622;49.972;8.452;2022-11-20T07:10:59;100176.19;;;1.13;100.00
56876;BME280;42622;49.972;8.452;2022-11-20T07:13:27;100185.00;;;1.09;100.00
56876;BME280;42622;49.972;8.452;2022-11-20T07:15:53;100182.47;;;1.07;100.00
56876;BME280;42622;49.972;8.452;2022-11-20T07:18:19;100170.38;;;1.06;100.00
56876;BME280;42622;49.972;8.452;2022-11-20T07:20:44;100177.38;;;1.04;100.00
56876;BME280;42622;49.972;8.452;2022-11-20T07:23:10;100174.69;;;1.06;100.00
56876;BME280;42622;49.972;8.452;2022-11-20T07:25:36;100174.91;;;1.00;100.00
56876;BME280;42622;49.972;8.452;2022-11-20T07:28:02;100180.97;;;1.00;100.00
56876;BME280;42622;49.972;8.452;2022-11-20T07:30:28;100182.63;;;1.03;100.00
56876;BME280;42622;49.972;8.452;2022-11-20T07:32:55;100179.91;;;1.06;100.00
56876;BME280;42622;49.972;8.452;2022-11-20T07:35:23;100173.91;;;1.04;100.00
56876;BME280;42622;49.972;8.452;2022-11-20T07:37:49;100184.41;;;1.01;100.00
56876;BME280;42622;49.972;8.452;2022-11-20T07:40:19;100188.53;;;1.08;100.00
56876;BME280;42622;49.972;8.452;2022-11-20T07:42:54;100190.28;;;1.07;100.00
56876;BME280;42622;49.972;8.452;2022-11-20T07:45:23;100193.63;;;1.11;100.00
56876;BME280;42622;49.972;8.452;2022-11-20T07:47:50;100185.81;;;1.11;100.00
56876;BME280;42622;49.972;8.452;2022-11-20T07:50:17;100188.47;;;1.09;100.00
56876;BME280;42622;49.972;8.452;2022-11-20T07:52:43;100186.84;;;1.07;100.00
56876;BME280;42622;49.972;8.452;2022-11-20T07:55:11;100191.94;;;1.10;100.00
56876;BME280;42622;49.972;8.452;2022-11-20T07:57:37;100196.25;;;1.11;100.00
56876;BME280;42622;49.972;8.452;2022-11-20T08:00:06;100196.06;;;1.15;100.00
56876;BME280;42622;49.972;8.452;2022-11-20T08:02:40;100196.91;;;1.17;100.00
56876;BME280;42622;49.972;8.452;2022-11-20T08:05:08;100193.31;;;1.20;100.00
56876;BME280;42622;49.972;8.452;2022-11-20T08:07:40;100200.91;;;1.28;100.00
56876;BME280;42622;49.972;8.452;2022-11-20T08:10:12;100199.94;;;1.30;100.00
56876;BME280;42622;49.972;8.452;2022-11-20T08:12:54;100199.81;;;1.33;100.00
56876;BME280;42622;49.972;8.452;2022-11-20T08:15:39;100198.81;;;1.37;100.00
56876;BME280;42622;49.972;8.452;2022-11-20T08:18:08;100199.44;;;1.46;100.00
56876;BME280;42622;49.972;8.452;2022-11-20T08:20:39;100192.28;;;1.51;100.00
56876;BME280;42622;49.972;8.452;2022-11-20T08:23:07;100199.84;;;1.58;100.00
56876;BME280;42622;49.972;8.452;2022-11-20T08:25:36;100206.72;;;1.61;100.00
56876;BME280;42622;49.972;8.452;2022-11-20T08:28:07;100195.06;;;1.71;100.00
56876;BME280;42622;49.972;8.452;2022-11-20T08:30:36;100203.03;;;1.91;100.00
56876;BME280;42622;49.972;8.452;2022-11-20T08:33:07;100205.00;;;2.08;100.00
56876;BME280;42622;49.972;8.452;2022-11-20T08:35:38;100209.09;;;2.15;100.00
56876;BME280;42622;49.972;8.452;2022-11-20T08:38:05;100217.09;;;2.11;100.00
56876;BME280;42622;49.972;8.452;2022-11-20T08:40:31;100211.94;;;2.09;100.00
56876;BME280;42622;49.972;8.452;2022-11-20T08:42:58;100219.03;;;2.06;100.00
56876;BME280;42622;49.972;8.452;2022-11-20T08:45:24;100212.72;;;2.11;100.00
56876;BME280;42622;49.972;8.452;2022-11-20T08:47:50;100213.19;;;2.23;100.00
56876;BME280;42622;49.972;8.452;2022-11-20T08:50:16;100208.59;;;2.29;100.00
56876;BME280;42622;49.972;8.452;2022-11-20T08:52:43;100216.06;;;2.38;100.00
56876;BME280;42622;49.972;8.452;2022-11-20T08:55:09;100214.13;;;2.44;100.00
56876;BME280;42622;49.972;8.452;2022-11-20T08:57:36;100208.25;;;2.38;100.00
56876;BME280;42622;49.972;8.452;2022-11-20T09:00:06;100212.81;;;2.33;100.00
56876;BME280;42622;49.972;8.452;2022-11-20T09:02:32;100208.13;;;2.42;100.00
56876;BME280;42622;49.972;8.452;2022-11-20T09:04:59;100210.19;;;2.33;100.00
56876;BME280;42622;49.972;8.452;2022-11-20T09:07:25;100218.97;;;2.31;100.00
56876;BME280;42622;49.972;8.452;2022-11-20T09:09:50;100223.78;;;2.42;100.00
56876;BME280;42622;49.972;8.452;2022-11-20T09:12:16;100225.16;;;2.52;100.00
56876;BME280;42622;49.972;8.452;2022-11-20T09:14:42;100230.00;;;2.61;100.00
56876;BME280;42622;49.972;8.452;2022-11-20T09:17:10;100228.19;;;2.63;100.00
56876;BME280;42622;49.972;8.452;2022-11-20T09:19:39;100227.66;;;2.55;100.00
56876;BME280;42622;49.972;8.452;2022-11-20T09:22:06;100222.66;;;2.49;100.00
56876;BME280;42622;49.972;8.452;2022-11-20T09:24:32;100234.84;;;2.48;100.00
56876;BME280;42622;49.972;8.452;2022-11-20T09:26:58;100225.31;;;2.47;100.00
56876;BME280;42622;49.972;8.452;2022-11-20T09:29:23;100221.00;;;2.46;100.00
56876;BME280;42622;49.972;8.452;2022-11-20T09:31:49;100230.78;;;2.41;100.00
56876;BME280;42622;49.972;8.452;2022-11-20T09:34:15;100227.13;;;2.45;100.00
56876;BME280;42622;49.972;8.452;2022-11-20T09:36:41;100237.16;;;2.56;100.00
56876;BME280;42622;49.972;8.452;2022-11-20T09:39:06;100238.75;;;2.60;100.00
56876;BME280;42622;49.972;8.452;2022-11-20T09:44:49;100228.53;;;2.54;100.00
56876;BME280;42622;49.972;8.452;2022-11-20T09:48:04;100223.44;;;2.51;100.00
56876;BME280;42622;49.972;8.452;2022-11-20T09:51:01;100217.47;;;2.47;100.00
56876;BME280;42622;49.972;8.452;2022-11-20T09:56:42;100214.94;;;2.46;100.00
56876;BME280;42622;49.972;8.452;2022-11-20T09:59:34;100220.38;;;2.39;100.00
56876;BME280;42622;49.972;8.452;2022-11-20T10:04:57;100224.00;;;2.35;100.00
56876;BME280;42622;49.972;8.452;2022-11-20T10:07:59;100214.94;;;2.46;100.00
56876;BME280;42622;49.972;8.452;2022-11-20T10:10:56;100209.25;;;2.58;100.00
56876;BME280;42622;49.972;8.452;2022-11-20T10:17:31;100210.13;;;2.58;100.00
56876;BME280;42622;49.972;8.452;2022-11-20T10:26:43;100198.66;;;2.39;100.00
56876;BME280;42622;49.972;8.452;2022-11-20T10:29:33;100202.69;;;2.48;100.00
56876;BME280;42622;49.972;8.452;2022-11-20T10:32:23;100198.22;;;2.51;100.00
56876;BME280;42622;49.972;8.452;2022-11-20T10:35:18;100185.91;;;2.55;100.00
56876;BME280;42622;49.972;8.452;2022-11-20T10:38:31;100187.50;;;2.57;100.00
56876;BME280;42622;49.972;8.452;2022-11-20T10:41:06;100191.16;;;2.53;100.00
56876;BME280;42622;49.972;8.452;2022-11-20T10:44:08;100189.47;;;2.52;100.00
56876;BME280;42622;49.972;8.452;2022-11-20T10:47:15;100194.72;;;2.51;100.00
56876;BME280;42622;49.972;8.452;2022-11-20T10:49:52;100181.75;;;2.49;100.00
56876;BME280;42622;49.972;8.452;2022-11-20T10:53:11;100174.97;;;2.45;100.00
56876;BME280;42622;49.972;8.452;2022-11-20T10:56:04;100174.88;;;2.47;100.00
56876;BME280;42622;49.972;8.452;2022-11-20T11:01:42;100167.75;;;2.52;100.00
56876;BME280;42622;49.972;8.452;2022-11-20T11:04:33;100169.44;;;2.53;100.00
56876;BME280;42622;49.972;8.452;2022-11-20T11:07:18;100169.38;;;2.54;100.00
56876;BME280;42622;49.972;8.452;2022-11-20T11:09:52;100164.16;;;2.54;100.00
56876;BME280;42622;49.972;8.452;2022-11-20T11:12:26;100157.03;;;2.58;100.00
56876;BME280;42622;49.972;8.452;2022-11-20T11:14:57;100165.44;;;2.66;100.00
56876;BME280;42622;49.972;8.452;2022-11-20T11:20:25;100148.94;;;2.87;100.00
56876;BME280;42622;49.972;8.452;2022-11-20T11:22:56;100156.13;;;3.03;100.00
56876;BME280;42622;49.972;8.452;2022-11-20T11:25:34;100151.81;;;3.02;100.00
56876;BME280;42622;49.972;8.452;2022-11-20T11:28:05;100149.13;;;3.03;100.00
56876;BME280;42622;49.972;8.452;2022-11-20T11:30:47;100148.38;;;3.01;100.00
56876;BME280;42622;49.972;8.452;2022-11-20T11:33:27;100151.81;;;3.02;100.00
56876;BME280;42622;49.972;8.452;2022-11-20T11:36:16;100148.16;;;3.06;100.00
56876;BME280;42622;49.972;8.452;2022-11-20T11:38:44;100143.63;;;3.11;100.00
56876;BME280;42622;49.972;8.452;2022-11-20T11:41:20;100139.03;;;3.16;100.00
56876;BME280;42622;49.972;8.452;2022-11-20T11:44:17;100137.88;;;3.23;100.00
56876;BME280;42622;49.972;8.452;2022-11-20T11:47:11;100139.50;;;3.26;100.00
56876;BME280;42622;49.972;8.452;2022-11-20T11:49:43;100126.97;;;3.34;100.00
56876;BME280;42622;49.972;8.452;2022-11-20T11:52:17;100120.34;;;3.46;100.00
56876;BME280;42622;49.972;8.452;2022-11-20T11:55:04;100129.81;;;3.48;100.00
56876;BME280;42622;49.972;8.452;2022-11-20T12:00:17;100126.22;;;3.71;100.00
56876;BME280;42622;49.972;8.452;2022-11-20T12:05:39;100109.97;;;3.83;100.00
56876;BME280;42622;49.972;8.452;2022-11-20T12:11:49;100101.59;;;3.96;100.00
56876;BME280;42622;49.972;8.452;2022-11-20T12:14:39;100099.56;;;4.20;100.00
56876;BME280;42622;49.972;8.452;2022-11-20T12:17:13;100106.41;;;4.41;100.00
56876;BME280;42622;49.972;8.452;2022-11-20T12:19:40;100102.75;;;4.45;100.00
56876;BME280;42622;49.972;8.452;2022-11-20T12:22:18;100104.34;;;4.48;100.00
56876;BME280;42622;49.972;8.452;2022-11-20T12:25:22;100099.78;;;4.53;100.00
56876;BME280;42622;49.972;8.452;2022-11-20T12:34:27;100088.97;;;4.59;100.00
56876;BME280;42622;49.972;8.452;2022-11-20T12:40:17;100097.94;;;4.36;100.00
56876;BME280;42622;49.972;8.452;2022-11-20T12:43:21;100094.16;;;4.24;100.00
56876;BME280;42622;49.972;8.452;2022-11-20T12:46:16;100076.34;;;4.14;100.00
56876;BME280;42622;49.972;8.452;2022-11-20T12:52:24;100087.66;;;4.14;100.00
56876;BME280;42622;49.972;8.452;2022-11-20T12:55:25;100083.50;;;4.10;100.00
56876;BME280;42622;49.972;8.452;2022-11-20T13:01:55;100084.25;;;4.12;100.00
56876;BME280;42622;49.972;8.452;2022-11-20T13:07:35;100075.78;;;4.07;100.00
56876;BME280;42622;49.972;8.452;2022-11-20T13:10:15;100067.41;;;3.99;100.00
56876;BME280;42622;49.972;8.452;2022-11-20T13:12:57;100065.50;;;4.02;100.00
56876;BME280;42622;49.972;8.452;2022-11-20T13:15:59;100058.38;;;4.06;100.00
56876;BME280;42622;49.972;8.452;2022-11-20T13:18:39;100060.22;;;4.04;100.00
56876;BME280;42622;49.972;8.452;2022-11-20T13:21:17;100046.66;;;3.96;100.00
56876;BME280;42622;49.972;8.452;2022-11-20T13:24:19;100062.63;;;3.90;100.00
56876;BME280;42622;49.972;8.452;2022-11-20T13:26:47;100054.78;;;3.90;100.00
56876;BME280;42622;49.972;8.452;2022-11-20T13:29:18;100056.44;;;3.92;100.00
56876;BME280;42622;49.972;8.452;2022-11-20T13:31:48;100053.88;;;3.91;100.00
56876;BME280;42622;49.972;8.452;2022-11-20T13:34:26;100047.09;;;3.87;100.00
56876;BME280;42622;49.972;8.452;2022-11-20T13:36:58;100050.81;;;3.81;100.00
56876;BME280;42622;49.972;8.452;2022-11-20T13:39:35;100048.16;;;3.82;100.00
56876;BME280;42622;49.972;8.452;2022-11-20T13:44:46;100039.25;;;3.87;100.00
56876;BME280;42622;49.972;8.452;2022-11-20T13:47:21;100026.16;;;3.87;100.00
56876;BME280;42622;49.972;8.452;2022-11-20T13:49:51;100019.31;;;3.84;100.00
56876;BME280;42622;49.972;8.452;2022-11-20T13:52:58;100018.94;;;3.92;100.00
56876;BME280;42622;49.972;8.452;2022-11-20T13:55:38;100008.16;;;3.99;100.00
56876;BME280;42622;49.972;8.452;2022-11-20T13:58:36;100012.34;;;4.02;100.00
56876;BME280;42622;49.972;8.452;2022-11-20T14:01:20;100008.66;;;4.06;100.00
56876;BME280;42622;49.972;8.452;2022-11-20T14:03:49;100013.72;;;4.11;100.00
56876;BME280;42622;49.972;8.452;2022-11-20T14:08:54;100003.94;;;4.14;100.00
56876;BME280;42622;49.972;8.452;2022-11-20T14:11:27;100006.31;;;4.19;100.00
56876;BME280;42622;49.972;8.452;2022-11-20T14:14:03;100004.41;;;4.22;100.00
56876;BME280;42622;49.972;8.452;2022-11-20T14:16:39;99996.41;;;4.25;100.00
56876;BME280;42622;49.972;8.452;2022-11-20T14:22:27;99980.56;;;4.28;100.00
56876;BME280;42622;49.972;8.452;2022-11-20T14:27:52;99992.31;;;4.20;100.00